createdAt,value
2022-07-26T00:00:28.341Z,1008.50
2022-07-26T00:01:32.206Z,1008.47
2022-07-26T00:02:28.929Z,1008.46
2022-07-26T00:03:29.211Z,1008.45
2022-07-26T00:04:29.480Z,1008.50
2022-07-26T00:05:29.727Z,1008.49
2022-07-26T00:06:30.035Z,1008.47
2022-07-26T00:07:36.003Z,1008.53
2022-07-26T00:08:31.606Z,1008.49
2022-07-26T00:09:30.907Z,1008.52
2022-07-26T00:10:31.206Z,1008.47
2022-07-26T00:11:31.502Z,1008.51
2022-07-26T00:12:31.895Z,1008.54
2022-07-26T00:13:32.152Z,1008.53
2022-07-26T00:14:32.386Z,1008.51
2022-07-26T00:15:32.692Z,1008.50
2022-07-26T00:16:33.105Z,1008.48
2022-07-26T00:17:33.248Z,1008.49
2022-07-26T00:18:33.561Z,1008.49
2022-07-26T00:19:33.810Z,1008.42
2022-07-26T00:20:34.112Z,1008.45
2022-07-26T00:21:34.413Z,1008.48
2022-07-26T00:22:34.698Z,1008.50
2022-07-26T00:23:35.023Z,1008.47
2022-07-26T00:24:35.683Z,1008.48
2022-07-26T00:25:35.616Z,1008.47
2022-07-26T00:26:35.912Z,1008.48
2022-07-26T00:27:36.222Z,1008.47
2022-07-26T00:28:36.545Z,1008.50
2022-07-26T00:29:36.804Z,1008.45
2022-07-26T00:30:37.122Z,1008.48
2022-07-26T00:31:37.469Z,1008.40
2022-07-26T00:32:37.736Z,1008.44
2022-07-26T00:33:38.053Z,1008.39
2022-07-26T00:34:38.291Z,1008.41
2022-07-26T00:35:38.671Z,1008.41
2022-07-26T00:36:41.815Z,1008.44
2022-07-26T00:37:39.283Z,1008.45
2022-07-26T00:38:39.596Z,1008.46
2022-07-26T00:39:39.854Z,1008.48
2022-07-26T00:40:40.155Z,1008.50
2022-07-26T00:41:40.451Z,1008.48
2022-07-26T00:42:40.764Z,1008.51
2022-07-26T00:43:41.086Z,1008.49
2022-07-26T00:44:41.345Z,1008.52
2022-07-26T00:45:41.729Z,1008.46
2022-07-26T00:46:42.019Z,1008.47
2022-07-26T00:47:42.268Z,1008.49
2022-07-26T00:48:42.615Z,1008.48
2022-07-26T00:49:42.878Z,1008.51
2022-07-26T00:50:43.152Z,1008.45
2022-07-26T00:51:46.431Z,1008.48
2022-07-26T00:52:43.799Z,1008.51
2022-07-26T00:53:44.105Z,1008.48
2022-07-26T00:54:44.377Z,1008.47
2022-07-26T00:55:44.685Z,1008.50
2022-07-26T00:56:44.987Z,1008.47
2022-07-26T00:57:45.291Z,1008.47
2022-07-26T00:58:45.615Z,1008.51
2022-07-26T00:59:45.865Z,1008.51
2022-07-26T01:00:46.256Z,1008.52
2022-07-26T01:01:46.595Z,1008.56
2022-07-26T01:02:46.676Z,1008.50
2022-07-26T01:03:46.974Z,1008.49
2022-07-26T01:04:47.238Z,1008.54
2022-07-26T01:05:47.554Z,1008.54
2022-07-26T01:06:47.806Z,1008.48
2022-07-26T01:07:48.115Z,1008.51
2022-07-26T01:08:48.420Z,1008.55
2022-07-26T01:09:48.710Z,1008.55
2022-07-26T01:10:48.996Z,1008.55
2022-07-26T01:11:49.294Z,1008.54
2022-07-26T01:12:49.598Z,1008.60
2022-07-26T01:13:49.957Z,1008.58
2022-07-26T01:14:50.209Z,1008.60
2022-07-26T01:15:50.573Z,1008.62
2022-07-26T01:16:50.702Z,1008.56
2022-07-26T01:17:50.970Z,1008.60
2022-07-26T01:18:51.290Z,1008.60
2022-07-26T01:19:51.553Z,1008.66
2022-07-26T01:20:51.808Z,1008.63
2022-07-26T01:21:52.108Z,1008.66
2022-07-26T01:22:52.417Z,1008.69
2022-07-26T01:23:52.719Z,1008.67
2022-07-26T01:24:53.007Z,1008.62
2022-07-26T01:25:53.336Z,1008.59
2022-07-26T01:26:53.610Z,1008.61
2022-07-26T01:27:53.930Z,1008.61
2022-07-26T01:28:54.189Z,1008.61
2022-07-26T01:29:54.447Z,1008.64
2022-07-26T01:30:54.758Z,1008.70
2022-07-26T01:31:55.034Z,1008.67
2022-07-26T01:32:55.325Z,1008.65
2022-07-26T01:33:55.630Z,1008.64
2022-07-26T01:34:55.930Z,1008.67
2022-07-26T01:35:56.233Z,1008.70
2022-07-26T01:36:56.519Z,1008.72
2022-07-26T01:37:56.821Z,1008.70
2022-07-26T01:38:57.130Z,1008.76
2022-07-26T01:39:57.413Z,1008.74
2022-07-26T01:40:57.783Z,1008.78
2022-07-26T01:41:58.022Z,1008.75
2022-07-26T01:42:58.341Z,1008.78
2022-07-26T01:43:58.641Z,1008.80
2022-07-26T01:44:58.892Z,1008.81
2022-07-26T01:45:59.225Z,1008.87
2022-07-26T01:46:59.495Z,1008.87
2022-07-26T01:47:59.797Z,1008.86
2022-07-26T01:49:00.225Z,1008.84
2022-07-26T01:50:00.393Z,1008.83
